Celebrity Galaxy — 9HJH9 — position and weather

sailwx.info

Track history (hours):
 
Tides and Currents Weather Stations Pressure Air Temp Water Temp Dewpoint Dewpoint Depression Visibility Wind Speed Wind Dir Waves Ship Positions

Celebrity Galaxy

Last reported at 2019-Jan-24 04:51 UTC. Time now 2019-Jan-24 06:41 UTC.
Position N 18°06' W 063°31'.

Length 262 m; draft 8.5 m.

Type: Passenger vessel. MMSI: 249051000.

Date/timePositionNaut miles runAvg speedWind from/ knotsBaromVisibWave heightAir tempDewpointWater temp
2019-Jan-24 04:51N 18°06' W 063°31'510.1
2019-Jan-24 04:20N 18°04' W 063°26'910.1
2019-Jan-24 03:29N 18°02' W 063°17'610.0
2019-Jan-24 02:55N 18°01' W 063°12'8 9.9
2019-Jan-24 02:09N 18°00' W 063°04'1 0.8
2019-Jan-24 00:57N 18°01' W 063°03'0 0.0
2019-Jan-24 00:09N 18°01' W 063°03'0 0.0
2019-Jan-23 22:45N 18°01' W 063°03'0 0.0
2019-Jan-23 22:28N 18°01' W 063°03'0 0.0
2019-Jan-23 18:57N 18°01' W 063°03'0 0.0
2019-Jan-23 12:37N 18°01' W 063°03'0 0.0
2019-Jan-23 11:11N 18°01' W 063°03'0 0.1
2019-Jan-23 10:26N 18°01' W 063°03'6 4.4
2019-Jan-23 09:09N 17°55' W 063°04'2 9.0
2019-Jan-23 08:52N 17°54' W 063°02'4 9.3
2019-Jan-23 08:27N 17°52' W 062°59'4 8.7
2019-Jan-23 07:58N 17°49' W 062°55'4 8.2
2019-Jan-23 07:30N 17°47' W 062°52'209 5.3
2019-Jan-21 15:57N 14°39' W 061°17'6 9.6
2019-Jan-21 15:20N 14°34' W 061°15'4 9.7
2019-Jan-21 14:55N 14°30' W 061°14'610.1
2019-Jan-21 14:17N 14°24' W 061°12'5 8.3
2019-Jan-21 13:43N 14°19' W 061°11'2 8.0
2019-Jan-21 13:30N 14°18' W 061°12'  
Track history (hours):
 
Tides and Currents Weather Stations Pressure Air Temp Water Temp Dewpoint Dewpoint Depression Visibility Wind Speed Wind Dir Waves Ship Positions

Celebrity Galaxy

Last reported at 2019-Jan-24 04:51 UTC. Time now 2019-Jan-24 06:41 UTC.
Position N 18°06' W 063°31'.

Length 262 m; draft 8.5 m.

Type: Passenger vessel. MMSI: 249051000.

Date/timePositionNaut miles runAvg speedWind from/ knotsBaromVisibWave heightAir tempDewpointWater temp
2019-Jan-24 04:51N 18°06' W 063°31'510.1
2019-Jan-24 04:20N 18°04' W 063°26'910.1
2019-Jan-24 03:29N 18°02' W 063°17'610.0
2019-Jan-24 02:55N 18°01' W 063°12'8 9.9
2019-Jan-24 02:09N 18°00' W 063°04'1 0.8
2019-Jan-24 00:57N 18°01' W 063°03'0 0.0
2019-Jan-24 00:09N 18°01' W 063°03'0 0.0
2019-Jan-23 22:45N 18°01' W 063°03'0 0.0
2019-Jan-23 22:28N 18°01' W 063°03'0 0.0
2019-Jan-23 18:57N 18°01' W 063°03'0 0.0
2019-Jan-23 12:37N 18°01' W 063°03'0 0.0
2019-Jan-23 11:11N 18°01' W 063°03'0 0.1
2019-Jan-23 10:26N 18°01' W 063°03'6 4.4
2019-Jan-23 09:09N 17°55' W 063°04'2 9.0
2019-Jan-23 08:52N 17°54' W 063°02'4 9.3
2019-Jan-23 08:27N 17°52' W 062°59'4 8.7
2019-Jan-23 07:58N 17°49' W 062°55'4 8.2
2019-Jan-23 07:30N 17°47' W 062°52'209 5.3
2019-Jan-21 15:57N 14°39' W 061°17'6 9.6
2019-Jan-21 15:20N 14°34' W 061°15'4 9.7
2019-Jan-21 14:55N 14°30' W 061°14'610.1
2019-Jan-21 14:17N 14°24' W 061°12'5 8.3
2019-Jan-21 13:43N 14°19' W 061°11'2 8.0
2019-Jan-21 13:30N 14°18' W 061°12'  

Dump ship's entire track history